Time;durP1;ratioP1;P1;durP2;ratioP2;P2;SDS_P1;SDS_P2;PMS_P1;PMS_P2;Temp;Humidity;BMP_temperature;BMP_pressure;BME280_temperature;BME280_humidity;BME280_pressure;Samples;Min_cycle;Max_cycle;Signal;HPM_P1;HPM_P2
2021/09/27 00:02:05;;;;;;;9.63;4.32;;;19.60;99.90;;;;;;5013054;28;20108;-80
2021/09/27 00:04:31;;;;;;;17.20;5.07;;;19.60;99.90;;;;;;5014127;28;20104;-78
2021/09/27 00:06:56;;;;;;;21.42;4.50;;;19.60;99.90;;;;;;5013994;28;20122;-80
2021/09/27 00:09:22;;;;;;;12.75;5.30;;;19.70;99.90;;;;;;5014010;28;20030;-80
2021/09/27 00:11:48;;;;;;;19.10;4.78;;;19.70;99.90;;;;;;5014021;28;20480;-77
2021/09/27 00:14:14;;;;;;;16.40;4.35;;;19.60;99.90;;;;;;5013824;28;20484;-79
2021/09/27 00:16:40;;;;;;;8.32;4.63;;;19.60;99.90;;;;;;5014200;28;20072;-81
2021/09/27 00:19:06;;;;;;;16.58;4.50;;;19.60;99.90;;;;;;5012955;28;20030;-77
2021/09/27 00:21:34;;;;;;;16.17;5.07;;;19.60;99.90;;;;;;5013614;28;20123;-78
2021/09/27 00:24:01;;;;;;;12.77;4.30;;;19.60;99.90;;;;;;5014102;28;20050;-79
2021/09/27 00:26:28;;;;;;;9.20;4.47;;;19.60;99.90;;;;;;5013587;28;20065;-80
2021/09/27 00:28:54;;;;;;;13.73;4.78;;;19.60;99.90;;;;;;5013569;28;20037;-78
2021/09/27 00:31:20;;;;;;;17.08;5.10;;;19.60;99.90;;;;;;5013741;28;20041;-78
2021/09/27 00:33:47;;;;;;;9.27;4.40;;;19.60;99.90;;;;;;5013361;28;20033;-79
2021/09/27 00:36:13;;;;;;;9.45;4.80;;;19.60;99.90;;;;;;5013396;28;20026;-78
2021/09/27 00:38:39;;;;;;;13.65;5.15;;;19.60;99.90;;;;;;5013733;28;20480;-80
2021/09/27 00:41:08;;;;;;;13.93;4.60;;;19.60;99.90;;;;;;5013483;28;20492;-79
2021/09/27 00:43:36;;;;;;;13.52;4.40;;;19.60;99.90;;;;;;5013667;28;20535;-80
2021/09/27 00:46:07;;;;;;;19.35;4.32;;;19.60;99.90;;;;;;5013259;28;20053;-80
2021/09/27 00:48:33;;;;;;;18.83;4.60;;;19.70;99.90;;;;;;5013599;28;20026;-79
2021/09/27 00:51:07;;;;;;;18.98;5.22;;;19.70;99.90;;;;;;4996010;28;20038;-81
2021/09/27 00:54:05;;;;;;;13.20;4.63;;;19.70;99.90;;;;;;5013396;28;20438;-80
2021/09/27 00:56:44;;;;;;;15.45;5.53;;;19.70;99.90;;;;;;4995931;28;20084;-80
2021/09/27 00:59:11;;;;;;;21.05;4.63;;;19.70;99.90;;;;;;5013080;28;20060;-79
2021/09/27 01:01:37;;;;;;;18.85;4.35;;;19.70;99.90;;;;;;5013317;28;20030;-80
2021/09/27 01:04:04;;;;;;;11.52;4.50;;;19.70;99.90;;;;;;5013305;28;20030;-79
2021/09/27 01:06:48;;;;;;;13.48;5.07;;;19.70;99.90;;;;;;5013362;28;20044;-78
2021/09/27 01:09:22;;;;;;;15.38;5.63;;;19.60;99.90;;;;;;5013026;28;20085;-79
2021/09/27 01:12:00;;;;;;;17.52;5.30;;;19.60;99.90;;;;;;5013439;28;20117;-79
2021/09/27 01:14:47;;;;;;;17.95;5.93;;;19.60;99.90;;;;;;5013331;28;20038;-79
2021/09/27 01:17:22;;;;;;;18.88;6.10;;;19.60;99.90;;;;;;5012843;28;20033;-79
2021/09/27 01:20:11;;;;;;;31.27;5.43;;;19.60;99.90;;;;;;5012920;28;20037;-78
2021/09/27 01:22:50;;;;;;;21.85;5.50;;;19.60;99.90;;;;;;5012856;28;20038;-78
2021/09/27 01:25:52;;;;;;;22.05;6.00;;;19.60;99.90;;;;;;5011457;28;20567;-80
2021/09/27 01:28:57;;;;;;;19.90;5.63;;;19.60;99.90;;;;;;4998258;28;20041;-78
2021/09/27 01:31:38;;;;;;;14.27;4.90;;;19.70;99.90;;;;;;5012121;28;20033;-78
2021/09/27 01:34:10;;;;;;;21.00;5.03;;;19.70;99.90;;;;;;5011954;28;20034;-77
2021/09/27 01:36:58;;;;;;;23.63;5.70;;;19.70;99.90;;;;;;5012114;28;20041;-79
2021/09/27 01:39:31;;;;;;;25.15;5.50;;;19.70;99.90;;;;;;5013860;28;20109;-79
2021/09/27 01:42:12;;;;;;;17.00;5.03;;;19.70;99.90;;;;;;5011891;28;20034;-79
2021/09/27 01:44:44;;;;;;;34.72;6.00;;;19.70;99.90;;;;;;5013288;28;20080;-79
2021/09/27 01:47:53;;;;;;;17.08;5.43;;;19.70;99.90;;;;;;5015500;28;20034;-78
2021/09/27 01:50:33;;;;;;;26.25;6.20;;;19.70;99.90;;;;;;5007382;28;20488;-80
2021/09/27 01:53:08;;;;;;;18.83;5.20;;;19.70;99.90;;;;;;4997660;28;20040;-80
2021/09/27 01:55:59;;;;;;;25.50;6.82;;;19.70;99.90;;;;;;5016385;28;20022;-81
2021/09/27 01:58:43;;;;;;;19.25;5.75;;;19.70;99.90;;;;;;5015788;28;20117;-81
2021/09/27 02:01:33;;;;;;;16.00;5.22;;;19.80;99.90;;;;;;5015596;28;20042;-78
2021/09/27 02:04:08;;;;;;;18.08;6.80;;;19.80;99.90;;;;;;5015635;28;20538;-78
2021/09/27 02:06:46;;;;;;;23.45;7.00;;;19.80;99.90;;;;;;5015526;28;20034;-77
2021/09/27 02:09:22;;;;;;;24.08;7.18;;;19.80;99.90;;;;;;5015609;28;20038;-79
2021/09/27 02:11:52;;;;;;;15.27;5.35;;;19.70;99.90;;;;;;5015392;28;20144;-77
2021/09/27 02:14:30;;;;;;;22.17;5.70;;;19.80;99.90;;;;;;5015352;28;20038;-77
2021/09/27 02:17:10;;;;;;;18.45;6.35;;;19.70;99.90;;;;;;5015304;28;20196;-78
2021/09/27 02:19:58;;;;;;;18.08;6.05;;;19.70;99.90;;;;;;5015322;28;20119;-78
2021/09/27 02:22:41;;;;;;;24.67;6.82;;;19.70;99.90;;;;;;5015322;28;20461;-80
2021/09/27 02:25:32;;;;;;;21.40;6.85;;;19.60;99.90;;;;;;5015195;28;20033;-77
2021/09/27 02:28:12;;;;;;;25.13;6.82;;;19.60;99.90;;;;;;4997687;28;20373;-78
2021/09/27 02:30:59;;;;;;;22.63;5.90;;;19.60;99.90;;;;;;5015380;28;20030;-79
2021/09/27 02:33:50;;;;;;;21.88;7.40;;;19.60;99.90;;;;;;5015292;28;20038;-80
2021/09/27 02:36:30;;;;;;;19.27;6.60;;;19.50;99.90;;;;;;5015109;28;20042;-79
2021/09/27 02:39:21;;;;;;;16.42;5.93;;;19.50;99.90;;;;;;5014955;28;20076;-79
2021/09/27 02:41:52;;;;;;;30.85;6.20;;;19.50;99.90;;;;;;5014906;28;20046;-78
2021/09/27 02:44:18;;;;;;;20.48;6.63;;;19.50;99.90;;;;;;5015217;28;20026;-77
2021/09/27 02:46:53;;;;;;;18.92;6.75;;;19.40;99.90;;;;;;5014708;28;20057;-78
2021/09/27 02:49:25;;;;;;;15.38;6.30;;;19.40;99.90;;;;;;5014899;28;20124;-80
2021/09/27 02:51:51;;;;;;;;;;;19.40;99.90;;;;;;5015167;28;20038;-79
2021/09/27 02:54:29;;;;;;;22.85;7.05;;;19.40;99.90;;;;;;5014638;28;19948;-80
2021/09/27 02:57:04;;;;;;;18.30;6.88;;;19.50;99.90;;;;;;5014431;28;20084;-77
2021/09/27 02:59:57;;;;;;;20.67;6.35;;;19.50;99.90;;;;;;5014546;28;20042;-79
2021/09/27 03:02:51;;;;;;;19.50;6.35;;;19.60;99.90;;;;;;5014520;28;20496;-80
2021/09/27 03:05:34;;;;;;;17.58;5.80;;;19.60;99.90;;;;;;5014207;28;20038;-78
2021/09/27 03:08:05;;;;;;;23.20;7.55;;;19.70;99.90;;;;;;5014511;28;20037;-79
2021/09/27 03:11:00;;;;;;;17.38;6.82;;;19.70;99.90;;;;;;5014442;28;20030;-80
2021/09/27 03:13:44;;;;;;;34.38;7.13;;;19.70;99.90;;;;;;5014210;28;20041;-78
2021/09/27 03:16:25;;;;;;;13.65;5.95;;;19.70;99.90;;;;;;5014105;28;20079;-79
2021/09/27 03:18:59;;;;;;;18.20;7.05;;;19.70;99.90;;;;;;5012923;28;20034;-79
2021/09/27 03:21:34;;;;;;;24.88;6.88;;;19.70;99.90;;;;;;5012786;28;20496;-78
2021/09/27 03:24:10;;;;;;;19.85;7.20;;;19.60;99.90;;;;;;5014073;28;20046;-79
2021/09/27 03:27:00;;;;;;;20.33;7.13;;;19.60;99.90;;;;;;5014073;28;20034;-78
2021/09/27 03:30:00;;;;;;;18.35;7.13;;;19.60;99.90;;;;;;5014294;28;20479;-77
2021/09/27 03:32:38;;;;;;;23.23;7.47;;;19.50;99.90;;;;;;5014170;28;20049;-78
2021/09/27 03:35:13;;;;;;;23.02;6.78;;;19.50;99.90;;;;;;5013830;28;20539;-79
2021/09/27 03:37:51;;;;;;;27.73;7.03;;;19.50;99.90;;;;;;5014073;28;20518;-79
2021/09/27 03:40:46;;;;;;;20.75;7.10;;;19.50;99.90;;;;;;5013658;28;20121;-78
2021/09/27 03:43:18;;;;;;;19.77;7.47;;;19.50;99.90;;;;;;5014056;28;20076;-79
2021/09/27 03:46:01;;;;;;;22.40;6.75;;;19.50;99.90;;;;;;5012394;28;20054;-78
2021/09/27 03:48:39;;;;;;;19.58;6.57;;;19.50;99.90;;;;;;5013640;28;20041;-79
2021/09/27 03:51:15;;;;;;;22.35;6.57;;;19.50;99.90;;;;;;5013525;28;20026;-80
2021/09/27 03:53:47;;;;;;;25.17;7.60;;;19.50;99.90;;;;;;5013576;28;20034;-80
2021/09/27 03:56:25;;;;;;;20.48;6.90;;;19.50;99.90;;;;;;5013629;28;20033;-80
2021/09/27 03:59:00;;;;;;;20.83;6.97;;;19.50;99.90;;;;;;5013406;28;20041;-79
2021/09/27 04:02:13;;;;;;;19.25;7.45;;;19.50;99.90;;;;;;5013438;28;20518;-80
2021/09/27 04:05:20;;;;;;;24.85;7.80;;;19.50;99.90;;;;;;4953478;28;20040;-79
2021/09/27 04:08:08;;;;;;;17.92;7.53;;;19.50;99.90;;;;;;5012761;28;20042;-80
2021/09/27 04:10:47;;;;;;;32.35;7.30;;;19.50;99.90;;;;;;5013360;28;20141;-79
2021/09/27 04:13:22;;;;;;;25.08;7.10;;;19.50;99.90;;;;;;5015109;28;20030;-78
2021/09/27 04:15:56;;;;;;;22.67;7.63;;;19.50;99.90;;;;;;5013556;28;20396;-80
2021/09/27 04:18:46;;;;;;;21.70;8.10;;;19.60;99.90;;;;;;5012061;28;20030;-80
2021/09/27 04:21:20;;;;;;;21.23;6.88;;;19.60;99.90;;;;;;5011844;28;20480;-79
2021/09/27 04:24:06;;;;;;;26.23;7.47;;;19.60;99.90;;;;;;5013025;28;20029;-80
2021/09/27 04:26:35;;;;;;;18.77;7.22;;;19.60;99.90;;;;;;5012908;28;20056;-80
2021/09/27 04:29:34;;;;;;;32.08;9.07;;;19.60;99.90;;;;;;5012870;28;20034;-78
2021/09/27 04:32:18;;;;;;;20.15;7.82;;;19.60;99.90;;;;;;5012939;28;20045;-79
2021/09/27 04:34:54;;;;;;;18.35;7.60;;;19.60;99.90;;;;;;5012883;28;20034;-78
2021/09/27 04:37:22;;;;;;;19.85;8.02;;;19.60;99.90;;;;;;4994947;28;20090;-79
2021/09/27 04:39:49;;;;;;;26.50;9.00;;;19.60;99.90;;;;;;5012809;28;20032;-80
2021/09/27 04:42:56;;;;;;;30.15;7.80;;;19.60;99.90;;;;;;5012790;28;20060;-79
2021/09/27 04:45:45;;;;;;;22.55;8.32;;;19.60;99.90;;;;;;5010684;28;20041;-80
2021/09/27 04:48:48;;;;;;;26.02;8.55;;;19.60;99.90;;;;;;4999328;28;20033;-80
2021/09/27 04:51:28;;;;;;;24.83;8.18;;;19.60;99.90;;;;;;5013615;28;20033;-79
2021/09/27 04:53:57;;;;;;;22.38;7.38;;;19.60;99.90;;;;;;5013528;28;20022;-78
2021/09/27 04:56:29;;;;;;;33.20;9.02;;;19.60;99.90;;;;;;5013572;28;20056;-79
2021/09/27 04:59:07;;;;;;;20.67;7.45;;;19.60;99.90;;;;;;5013392;28;20030;-80
2021/09/27 05:01:51;;;;;;;32.63;8.35;;;19.60;99.90;;;;;;5013062;28;20599;-78
2021/09/27 05:05:08;;;;;;;37.03;8.07;;;19.60;99.90;;;;;;5013526;28;20053;-79
2021/09/27 05:07:55;;;;;;;31.27;8.68;;;19.60;99.90;;;;;;4933888;29;20067;-80
2021/09/27 05:10:20;;;;;;;29.88;8.30;;;19.60;99.90;;;;;;4933794;29;20043;-80
2021/09/27 05:12:50;;;;;;;16.40;6.85;;;19.60;99.90;;;;;;4988934;28;20129;-79
2021/09/27 05:15:34;;;;;;;26.52;8.65;;;19.60;99.90;;;;;;5013031;28;20034;-79
2021/09/27 05:18:30;;;;;;;29.05;8.70;;;19.70;99.90;;;;;;5013888;28;20045;-81
2021/09/27 05:21:15;;;;;;;26.20;8.20;;;19.70;99.90;;;;;;4999635;28;20046;-80
2021/09/27 05:24:23;;;;;;;23.77;7.80;;;19.70;99.90;;;;;;5017194;28;20033;-80
2021/09/27 05:27:04;;;;;;;23.48;8.18;;;19.70;99.90;;;;;;5017299;28;20068;-81
2021/09/27 05:29:32;;;;;;;31.63;8.87;;;19.70;99.90;;;;;;5015827;28;20073;-80
2021/09/27 05:32:12;;;;;;;27.10;7.88;;;19.70;99.90;;;;;;5017046;28;20041;-81
2021/09/27 05:35:25;;;;;;;27.42;8.13;;;19.70;99.90;;;;;;5017023;28;20034;-79
2021/09/27 05:38:09;;;;;;;24.17;7.85;;;19.80;99.90;;;;;;4991533;28;20508;-81
2021/09/27 05:41:11;;;;;;;29.85;8.40;;;19.80;99.90;;;;;;5016561;28;20054;-80
2021/09/27 05:44:15;;;;;;;17.00;7.90;;;19.80;99.90;;;;;;5016075;28;20492;-81
2021/09/27 05:47:11;;;;;;;25.73;8.40;;;19.80;99.90;;;;;;4985422;28;20108;-80
2021/09/27 05:49:51;;;;;;;22.00;7.50;;;19.80;99.90;;;;;;5015690;28;20557;-79
2021/09/27 05:52:40;;;;;;;23.77;8.23;;;19.80;99.90;;;;;;5015820;28;20041;-78
2021/09/27 05:55:16;;;;;;;27.48;8.68;;;19.90;99.90;;;;;;5015611;28;20037;-77
2021/09/27 05:57:57;;;;;;;29.92;8.13;;;19.90;99.90;;;;;;5015914;28;20503;-79
2021/09/27 06:00:46;;;;;;;25.67;9.30;;;19.90;99.90;;;;;;5015170;28;20061;-79
2021/09/27 06:03:18;;;;;;;24.33;7.93;;;20.00;99.90;;;;;;4976737;28;20051;-79
2021/09/27 06:05:53;;;;;;;28.42;7.25;;;20.00;99.90;;;;;;5015390;28;20065;-78
2021/09/27 06:08:31;;;;;;;27.70;8.38;;;20.00;99.90;;;;;;5014311;28;20405;-78
2021/09/27 06:11:00;;;;;;;35.17;9.55;;;20.00;99.90;;;;;;5015576;28;20034;-79
2021/09/27 06:13:33;;;;;;;32.00;9.18;;;20.00;99.90;;;;;;5015399;28;20034;-79
2021/09/27 06:16:09;;;;;;;27.50;8.75;;;20.00;99.90;;;;;;5015495;28;20034;-77
2021/09/27 06:18:41;;;;;;;17.33;8.50;;;20.00;99.90;;;;;;5015232;28;20399;-78
2021/09/27 06:21:21;;;;;;;32.35;8.95;;;20.00;99.90;;;;;;5015019;28;20151;-78
2021/09/27 06:24:14;;;;;;;22.25;8.15;;;20.00;99.90;;;;;;5014800;28;20078;-79
2021/09/27 06:26:51;;;;;;;29.63;8.45;;;20.10;99.90;;;;;;4971863;28;20069;-80
2021/09/27 06:29:21;;;;;;;18.90;8.10;;;20.10;99.90;;;;;;5015614;28;20113;-80
2021/09/27 06:32:01;;;;;;;23.58;7.85;;;20.20;99.90;;;;;;5015287;28;20104;-81
2021/09/27 06:34:34;;;;;;;22.65;7.85;;;20.20;99.90;;;;;;5015757;28;20091;-80
2021/09/27 06:37:01;;;;;;;25.55;8.30;;;20.30;99.90;;;;;;5016012;28;20026;-80
2021/09/27 06:39:30;;;;;;;21.55;8.27;;;20.30;99.90;;;;;;5015788;28;20034;-80
2021/09/27 06:41:56;;;;;;;17.48;7.93;;;20.40;99.90;;;;;;5015575;28;20206;-80
2021/09/27 06:44:23;;;;;;;30.30;8.88;;;20.30;99.90;;;;;;5015652;28;20431;-79
2021/09/27 06:46:50;;;;;;;24.67;8.35;;;20.30;99.90;;;;;;5016467;28;20518;-78
2021/09/27 06:49:16;;;;;;;27.90;8.35;;;20.40;99.90;;;;;;5015686;28;20116;-80
2021/09/27 06:51:42;;;;;;;24.88;7.45;;;20.40;99.90;;;;;;5015568;28;20461;-79
2021/09/27 06:54:11;;;;;;;32.65;8.68;;;20.40;99.90;;;;;;5015348;28;20077;-79
2021/09/27 06:56:38;;;;;;;25.58;7.60;;;20.40;99.90;;;;;;5015370;28;20096;-79
2021/09/27 06:59:04;;;;;;;25.02;7.85;;;20.50;99.90;;;;;;5015202;28;20447;-78
2021/09/27 07:01:30;;;;;;;23.05;7.07;;;20.50;99.90;;;;;;5013833;28;20042;-80
2021/09/27 07:03:56;;;;;;;31.33;7.47;;;20.50;99.90;;;;;;5015215;28;20033;-78
2021/09/27 07:06:22;;;;;;;24.20;7.47;;;20.50;99.90;;;;;;5015020;28;20029;-78
2021/09/27 07:08:48;;;;;;;21.38;6.13;;;20.50;99.90;;;;;;5015049;28;20037;-79
2021/09/27 07:11:14;;;;;;;18.33;6.88;;;20.50;99.90;;;;;;5015043;28;20030;-81
2021/09/27 07:13:42;;;;;;;21.90;8.73;;;20.60;99.90;;;;;;5015283;28;20034;-78
2021/09/27 07:16:09;;;;;;;20.25;7.00;;;20.70;99.90;;;;;;5015194;28;20026;-78
2021/09/27 07:18:35;;;;;;;20.08;7.47;;;20.70;99.90;;;;;;5014744;28;20088;-79
2021/09/27 07:21:01;;;;;;;27.83;8.75;;;20.70;99.90;;;;;;5014851;28;20037;-78
2021/09/27 07:23:27;;;;;;;15.13;7.07;;;20.70;99.90;;;;;;5015117;28;20182;-78
2021/09/27 07:25:54;;;;;;;31.75;8.80;;;20.70;99.90;;;;;;5014848;28;20456;-77
2021/09/27 07:28:22;;;;;;;27.52;7.55;;;20.80;99.90;;;;;;5014685;28;20461;-79
2021/09/27 07:30:50;;;;;;;20.27;7.55;;;20.90;99.90;;;;;;5014944;28;20026;-77
2021/09/27 07:33:17;;;;;;;26.63;8.30;;;21.00;99.90;;;;;;5014497;28;20087;-78
2021/09/27 07:35:42;;;;;;;20.98;7.00;;;21.00;99.90;;;;;;5014729;28;20038;-78
2021/09/27 07:38:08;;;;;;;23.58;6.55;;;21.10;99.90;;;;;;5014953;28;20037;-79
2021/09/27 07:40:36;;;;;;;24.58;6.78;;;21.10;99.90;;;;;;5014633;28;20038;-78
2021/09/27 07:43:03;;;;;;;27.77;6.57;;;21.20;99.90;;;;;;5013210;28;20053;-78
2021/09/27 07:45:33;;;;;;;27.83;7.10;;;21.20;99.90;;;;;;5014306;28;20045;-77
2021/09/27 07:48:03;;;;;;;21.50;7.57;;;21.30;99.90;;;;;;5014859;28;20026;-78
2021/09/27 07:50:29;;;;;;;30.13;7.80;;;21.30;99.90;;;;;;5014599;28;20089;-78
2021/09/27 07:52:55;;;;;;;27.80;7.95;;;21.50;99.90;;;;;;5014356;28;20034;-78
2021/09/27 07:55:20;;;;;;;20.67;6.78;;;21.60;99.90;;;;;;5014277;28;20037;-78
2021/09/27 07:57:46;;;;;;;29.00;7.22;;;21.70;99.90;;;;;;5014314;28;20468;-78
2021/09/27 08:00:14;;;;;;;16.67;6.40;;;21.90;99.90;;;;;;5014541;28;20129;-79
2021/09/27 08:02:40;;;;;;;19.55;6.10;;;22.00;99.90;;;;;;5014389;28;20076;-78
2021/09/27 08:05:09;;;;;;;24.50;6.38;;;22.10;99.90;;;;;;5014309;28;20034;-78
2021/09/27 08:07:34;;;;;;;21.55;6.47;;;22.20;99.90;;;;;;5014337;28;20034;-78
2021/09/27 08:10:00;;;;;;;15.95;6.25;;;22.40;99.90;;;;;;5014192;28;20482;-79
2021/09/27 08:12:26;;;;;;;18.75;5.85;;;22.50;99.90;;;;;;5014309;28;20030;-78
2021/09/27 08:14:51;;;;;;;20.13;5.78;;;22.60;99.90;;;;;;5014195;28;20030;-78
2021/09/27 08:17:17;;;;;;;16.50;5.90;;;22.70;99.90;;;;;;5013472;28;20065;-79
2021/09/27 08:19:45;;;;;;;22.20;6.45;;;22.90;99.90;;;;;;5014056;28;20105;-79
2021/09/27 08:22:12;;;;;;;16.73;5.63;;;23.00;99.90;;;;;;5013377;28;20038;-77
2021/09/27 08:24:38;;;;;;;17.17;5.95;;;23.10;99.90;;;;;;5013778;28;20391;-78
2021/09/27 08:27:03;;;;;;;23.58;6.03;;;23.20;99.90;;;;;;5013923;28;20117;-79
2021/09/27 08:29:29;;;;;;;16.85;5.30;;;23.20;99.90;;;;;;5013556;28;20057;-82
2021/09/27 08:31:55;;;;;;;26.83;6.13;;;23.20;99.90;;;;;;5012526;28;20029;-79
2021/09/27 08:34:21;;;;;;;16.48;7.03;;;23.30;99.90;;;;;;5013874;28;20464;-83
2021/09/27 08:36:48;;;;;;;19.75;6.28;;;23.30;99.90;;;;;;5013792;28;20026;-82
2021/09/27 08:39:15;;;;;;;18.60;4.82;;;23.30;99.90;;;;;;4995753;28;20071;-82
2021/09/27 08:41:52;;;;;;;15.10;4.65;;;23.20;99.90;;;;;;5013655;28;20050;-82
2021/09/27 08:44:41;;;;;;;17.35;5.35;;;23.10;99.90;;;;;;4995978;28;20053;-82
2021/09/27 08:47:26;;;;;;;12.00;5.15;;;23.00;99.90;;;;;;5013602;28;20492;-81
2021/09/27 08:50:00;;;;;;;19.33;5.07;;;23.10;99.90;;;;;;5012354;28;20037;-82
2021/09/27 08:52:30;;;;;;;13.57;4.53;;;23.20;99.90;;;;;;5013168;28;20044;-82
2021/09/27 08:54:56;;;;;;;15.00;5.40;;;23.30;99.90;;;;;;5012263;28;20034;-81
2021/09/27 08:57:56;;;;;;;19.50;5.88;;;23.30;99.90;;;;;;5013555;28;20092;-83
2021/09/27 09:00:21;;;;;;;15.77;4.55;;;23.40;99.90;;;;;;5013537;28;20033;-82
2021/09/27 09:03:24;;;;;;;21.25;4.43;;;23.60;99.90;;;;;;5013610;28;20041;-81
2021/09/27 09:06:00;;;;;;;14.82;4.80;;;24.00;99.90;;;;;;5013291;28;20068;-81
2021/09/27 09:08:45;;;;;;;17.27;4.07;;;24.50;99.90;;;;;;5013228;28;20037;-82
2021/09/27 09:11:32;;;;;;;12.50;4.47;;;24.60;99.90;;;;;;5013519;28;20036;-82
2021/09/27 09:14:21;;;;;;;16.45;4.60;;;24.60;99.90;;;;;;5013468;28;20065;-81
2021/09/27 09:16:50;;;;;;;14.75;4.13;;;24.60;99.90;;;;;;4995625;28;20030;-82
2021/09/27 09:19:22;;;;;;;18.13;5.10;;;24.50;99.90;;;;;;5013495;28;20030;-84
2021/09/27 09:21:53;;;;;;;8.35;4.65;;;24.70;99.90;;;;;;5013648;28;20038;-83
2021/09/27 09:24:38;;;;;;;16.35;4.30;;;24.80;99.90;;;;;;5013516;28;20026;-85
2021/09/27 09:27:10;;;;;;;17.25;4.95;;;25.00;99.90;;;;;;5013072;28;20030;-81
2021/09/27 09:29:39;;;;;;;15.93;4.50;;;25.20;99.90;;;;;;5012929;28;20550;-78
2021/09/27 09:32:16;;;;;;;19.58;5.28;;;25.30;99.90;;;;;;5013120;28;20045;-82
2021/09/27 09:34:43;;;;;;;29.45;5.60;;;25.40;99.90;;;;;;5013118;28;20424;-80
2021/09/27 09:37:20;;;;;;;11.65;5.22;;;25.40;99.90;;;;;;5012657;28;20065;-84
2021/09/27 09:40:23;;;;;;;14.57;4.80;;;25.80;99.90;;;;;;5013202;28;20026;-84
2021/09/27 09:43:06;;;;;;;20.95;4.50;;;26.20;99.90;;;;;;4995234;28;20038;-84
2021/09/27 09:45:35;;;;;;;20.42;5.65;;;26.10;99.90;;;;;;5012903;28;20496;-83
2021/09/27 09:48:24;;;;;;;13.10;5.55;;;26.00;99.90;;;;;;4994792;28;20034;-80
2021/09/27 09:50:56;;;;;;;18.00;5.47;;;26.10;99.90;;;;;;4995331;28;20045;-79
2021/09/27 09:53:29;;;;;;;12.13;5.20;;;26.20;99.90;;;;;;5013172;28;20105;-84
2021/09/27 09:56:03;;;;;;;12.68;4.28;;;26.30;99.90;;;;;;5012793;28;20053;-83
2021/09/27 09:58:46;;;;;;;11.80;4.60;;;26.40;99.90;;;;;;5013024;28;20109;-83
2021/09/27 10:01:30;;;;;;;18.80;5.35;;;26.40;99.90;;;;;;5011589;28;20042;-84
2021/09/27 10:04:19;;;;;;;16.63;5.32;;;26.50;99.90;;;;;;5011868;28;20091;-82
2021/09/27 10:06:55;;;;;;;9.73;4.43;;;26.50;99.90;;;;;;5014782;28;20076;-80
2021/09/27 10:09:37;;;;;;;21.70;6.07;;;26.70;99.90;;;;;;5015182;28;20030;-83
2021/09/27 10:12:04;;;;;;;;;;;27.00;99.90;;;;;;5015841;28;20093;-81
2021/09/27 10:14:31;;;;;;;24.23;5.50;;;27.20;99.90;;;;;;5015374;28;19905;-83
2021/09/27 10:17:26;;;;;;;18.38;5.18;;;27.40;99.90;;;;;;5014197;28;20435;-78
2021/09/27 10:20:11;;;;;;;13.57;4.70;;;27.60;99.90;;;;;;5015472;28;20542;-80
2021/09/27 10:22:39;;;;;;;14.43;4.82;;;28.00;99.90;;;;;;5015823;28;20431;-82
2021/09/27 10:25:32;;;;;;;13.65;4.18;;;28.30;99.90;;;;;;5014970;28;20030;-83
2021/09/27 10:28:00;;;;;;;13.35;4.82;;;28.70;99.90;;;;;;5014332;28;20076;-79
2021/09/27 10:30:38;;;;;;;16.20;3.92;;;28.80;99.90;;;;;;4997517;28;20432;-81
2021/09/27 10:33:17;;;;;;;15.23;4.63;;;28.70;99.90;;;;;;5014503;28;20030;-82
2021/09/27 10:35:58;;;;;;;14.38;5.13;;;28.70;99.90;;;;;;5014729;28;20124;-80
2021/09/27 10:38:40;;;;;;;11.98;4.15;;;28.50;99.90;;;;;;5013609;28;20440;-76
2021/09/27 10:41:26;;;;;;;11.88;3.95;;;28.30;99.90;;;;;;5015356;28;20124;-77
2021/09/27 10:43:59;;;;;;;13.30;4.20;;;28.20;99.90;;;;;;5015756;28;20038;-80
2021/09/27 10:46:35;;;;;;;15.45;4.40;;;28.20;99.90;;;;;;5015013;28;20038;-80
2021/09/27 10:49:02;;;;;;;10.70;4.28;;;28.30;99.90;;;;;;5015640;28;20095;-83
2021/09/27 10:51:35;;;;;;;14.80;4.28;;;28.00;99.90;;;;;;5015550;28;20030;-80
2021/09/27 10:54:22;;;;;;;12.90;4.05;;;27.90;99.90;;;;;;5015612;28;20093;-79
2021/09/27 10:56:50;;;;;;;56.55;7.63;;;28.00;99.90;;;;;;5014094;28;20037;-80
2021/09/27 10:59:48;;;;;;;15.30;4.50;;;28.10;99.90;;;;;;5015961;28;20553;-79
2021/09/27 11:02:31;;;;;;;19.77;4.20;;;28.10;99.90;;;;;;5014475;28;20057;-80
2021/09/27 11:05:32;;;;;;;17.52;4.15;;;28.00;99.90;;;;;;5015870;28;20088;-80
2021/09/27 11:08:10;;;;;;;16.58;4.68;;;27.70;99.90;;;;;;5015566;28;20558;-83
2021/09/27 11:10:45;;;;;;;10.50;4.25;;;27.60;99.90;;;;;;4997841;28;20408;-84
2021/09/27 11:13:34;;;;;;;18.55;4.60;;;27.40;99.90;;;;;;5015631;28;20018;-79
2021/09/27 11:16:07;;;;;;;15.40;5.20;;;27.00;99.90;;;;;;5015201;28;20053;-80
2021/09/27 11:18:33;;;;;;;16.30;4.40;;;26.80;99.90;;;;;;5014920;28;20034;-77
2021/09/27 11:21:19;;;;;;;13.00;4.60;;;26.60;99.90;;;;;;5014950;28;20496;-77
2021/09/27 11:23:49;;;;;;;14.90;4.35;;;26.50;99.90;;;;;;5014899;28;20034;-78
2021/09/27 11:26:15;;;;;;;11.68;4.45;;;26.50;99.90;;;;;;5014958;28;20030;-79
2021/09/27 11:28:46;;;;;;;12.15;4.57;;;26.40;99.90;;;;;;5014790;28;20030;-79
2021/09/27 11:31:26;;;;;;;16.48;5.60;;;26.30;99.90;;;;;;5014953;28;20400;-77
2021/09/27 11:33:59;;;;;;;11.13;4.80;;;26.10;99.90;;;;;;5014905;28;20037;-81
2021/09/27 11:36:27;;;;;;;17.98;5.43;;;26.10;99.90;;;;;;5014102;28;20030;-80
2021/09/27 11:39:05;;;;;;;13.18;5.60;;;26.20;99.90;;;;;;5012606;28;20068;-79
2021/09/27 11:41:35;;;;;;;13.38;4.88;;;26.10;99.90;;;;;;5013507;28;20046;-78
2021/09/27 11:44:13;;;;;;;12.65;4.65;;;26.10;99.90;;;;;;5013714;28;20515;-79
2021/09/27 11:46:45;;;;;;;9.95;4.35;;;26.00;99.90;;;;;;5013254;28;20045;-76
2021/09/27 11:49:21;;;;;;;;;;;25.90;99.90;;;;;;5013919;28;20033;-79
2021/09/27 11:52:14;;;;;;;18.20;5.20;;;25.90;99.90;;;;;;5013397;28;19932;-80
2021/09/27 11:55:07;;;;;;;13.13;4.72;;;25.90;99.90;;;;;;4978998;28;20040;-80
2021/09/27 11:57:57;;;;;;;16.48;5.47;;;25.70;99.90;;;;;;5013590;28;20492;-80
2021/09/27 12:00:26;;;;;;;13.38;5.40;;;25.70;99.90;;;;;;4979587;28;20060;-81
2021/09/27 12:03:19;;;;;;;13.18;5.72;;;25.70;99.90;;;;;;5012891;28;20026;-81
2021/09/27 12:05:47;;;;;;;18.13;4.97;;;25.70;99.90;;;;;;5013672;28;20042;-79
2021/09/27 12:08:52;;;;;;;14.40;4.80;;;25.60;99.90;;;;;;5012312;28;20373;-80
2021/09/27 12:11:19;;;;;;;10.95;4.30;;;25.60;99.90;;;;;;5012477;28;20034;-80
2021/09/27 12:13:51;;;;;;;15.98;5.25;;;25.60;99.90;;;;;;5013061;28;20030;-80
2021/09/27 12:16:25;;;;;;;15.15;5.05;;;25.60;99.90;;;;;;5012726;28;20069;-80
2021/09/27 12:18:55;;;;;;;13.35;5.10;;;25.60;99.90;;;;;;4995807;28;20366;-78
2021/09/27 12:21:37;;;;;;;15.48;5.68;;;25.60;99.90;;;;;;5013797;28;20050;-78
2021/09/27 12:24:11;;;;;;;15.68;5.32;;;25.40;99.90;;;;;;5013545;28;20510;-79
2021/09/27 12:26:50;;;;;;;8.88;4.88;;;25.30;99.90;;;;;;5013383;28;20034;-79
2021/09/27 12:29:20;;;;;;;14.23;5.30;;;25.30;99.90;;;;;;5012972;28;20030;-81
2021/09/27 12:32:02;;;;;;;13.80;4.80;;;25.20;99.90;;;;;;5013297;28;20435;-78
2021/09/27 12:34:39;;;;;;;15.70;5.18;;;25.10;99.90;;;;;;5013798;28;20038;-77
2021/09/27 12:37:07;;;;;;;19.10;6.18;;;25.10;99.90;;;;;;5013731;28;20107;-78
2021/09/27 12:39:35;;;;;;;14.73;5.10;;;25.10;99.90;;;;;;5013110;28;20495;-78
2021/09/27 12:42:03;;;;;;;16.63;4.80;;;25.20;99.90;;;;;;5013424;28;20030;-78
2021/09/27 12:44:33;;;;;;;12.88;4.50;;;25.10;99.90;;;;;;5013714;28;20033;-78
2021/09/27 12:47:05;;;;;;;20.17;5.53;;;25.10;99.90;;;;;;5013091;28;20057;-78
2021/09/27 12:49:41;;;;;;;;;;;25.00;99.90;;;;;;5012865;28;20030;-77
2021/09/27 12:52:16;;;;;;;35.25;6.47;;;25.00;99.90;;;;;;5012584;28;19911;-79
2021/09/27 12:54:51;;;;;;;14.15;4.95;;;25.00;99.90;;;;;;5012543;28;20022;-78
2021/09/27 12:57:28;;;;;;;16.73;5.00;;;25.00;99.90;;;;;;5012530;28;20041;-80
2021/09/27 12:59:56;;;;;;;12.52;5.00;;;24.90;99.90;;;;;;5012317;28;20041;-80
2021/09/27 13:02:24;;;;;;;16.98;5.18;;;24.90;99.90;;;;;;5012180;28;20080;-81
2021/09/27 13:05:03;;;;;;;17.55;5.30;;;24.90;99.90;;;;;;4994896;28;20034;-80
2021/09/27 13:07:50;;;;;;;11.82;5.38;;;24.90;99.90;;;;;;5012341;28;20393;-79
2021/09/27 13:10:45;;;;;;;14.43;5.80;;;24.80;99.90;;;;;;5012394;28;20112;-81
2021/09/27 13:13:15;;;;;;;9.65;5.78;;;24.70;99.90;;;;;;5012230;28;20477;-80
2021/09/27 13:15:43;;;;;;;15.05;5.97;;;24.50;99.90;;;;;;5012497;28;20030;-82
2021/09/27 13:18:12;;;;;;;13.40;6.72;;;24.50;99.90;;;;;;5011928;28;20030;-78
2021/09/27 13:21:00;;;;;;;11.38;6.10;;;24.40;99.90;;;;;;5012172;28;20515;-77
2021/09/27 13:23:39;;;;;;;11.57;6.97;;;24.40;99.90;;;;;;5012173;28;20034;-78
2021/09/27 13:26:16;;;;;;;28.63;7.90;;;24.30;99.90;;;;;;5012093;28;20022;-80
2021/09/27 13:28:47;;;;;;;15.48;7.18;;;24.30;99.90;;;;;;5012234;28;20439;-81